Latest Weather Observations for Cape Byron

IDN60801

Issued at 11:35 am EST Monday 15 September 2014 (issued every 30 minutes, with the page automatically refreshed every 10 minutes)

About weather observations | Map of weather stations | Latest weather observations for NSW | Other Formats
Station Details ID: 058216 Name: CAPE BYRON AWS Lat: -28.64 Lon: 153.64 Height: 95.0 m
Data from the previous 72 hours. | See also: Recent months at Cape Byron
Date/Time
EST
Temp
°C
App
Temp
°C
Dew
Point
Rel
Hum
%
Delta-T
°C
Wind Press
QNH
hPa
Press
MSL
hPa
Rain
since 9 am
mm
Dir
 
Spd
km/h
Gust
km/h
Spd
kts
Gust
kts
15/11:30am 23.0 21.9 14.3 58 5.1 N 13 17 7 9 1017.2 1016.9 0.0
15/11:00am 22.6 22.1 13.9 58 5.1 N 9 13 5 7 1017.6 1017.3 0.0
15/10:30am 21.6 20.6 13.5 60 4.7 N 11 17 6 9 1018.1 1017.8 0.0
15/10:00am 21.5 21.0 13.7 61 4.5 NNE 9 15 5 8 1018.4 1018.1 0.0
15/09:30am 20.8 20.5 13.3 62 4.3 N 7 11 4 6 1018.6 1018.3 0.0
15/09:00am 20.4 19.8 12.4 60 4.5 N 7 9 4 5 1019.0 1018.7 0.0
15/08:30am 19.2 18.7 12.5 65 3.8 N 7 11 4 6 1019.0 1018.7 0.0
15/08:00am 18.9 18.4 12.2 65 3.7 N 6 9 3 5 1019.0 1018.7 0.0
15/07:30am 17.8 17.6 11.8 68 3.3 NNW 4 9 2 5 1019.1 1018.8 0.0
15/07:00am 16.9 16.1 11.8 72 2.8 NW 7 9 4 5 1019.0 1018.7 0.0
15/06:30am 15.8 15.2 12.2 79 2.0 NW 7 11 4 6 1018.6 1018.3 0.0
15/06:00am 16.2 16.0 12.9 81 1.8 NNE 6 9 3 5 1018.3 1018.0 0.0
15/05:30am 16.5 15.3 12.7 78 2.1 N 11 17 6 9 1017.8 1017.5 0.0
15/05:00am 16.8 15.0 12.1 74 2.6 NNW 13 19 7 10 1017.8 1017.5 0.0
15/04:30am 17.1 14.6 12.4 74 2.6 N 17 24 9 13 1017.5 1017.2 0.0
15/04:00am 17.3 14.3 12.4 73 2.7 N 20 26 11 14 1017.4 1017.1 0.0
15/03:30am 17.4 15.0 12.5 73 2.7 N 17 28 9 15 1017.4 1017.1 0.0
15/03:00am 17.8 14.8 12.7 72 2.9 N 20 30 11 16 1017.3 1017.0 0.0
15/02:30am 17.9 14.3 13.0 73 2.8 N 24 33 13 18 1017.5 1017.2 0.0
15/02:00am 17.8 14.6 13.1 74 2.6 N 22 35 12 19 1017.8 1017.5 0.0
15/01:30am 17.7 14.5 13.0 74 2.6 N 22 33 12 18 1018.1 1017.8 0.0
15/01:00am 17.8 14.6 13.1 74 2.6 N 22 32 12 17 1018.4 1018.1 0.0
15/12:30am 17.8 15.0 13.3 75 2.5 N 20 30 11 16 1018.7 1018.4 0.0
15/12:00am 17.8 15.1 13.5 76 2.4 N 20 32 11 17 1019.0 1018.7 0.0
 
Date/Time
EST
Temp
°C
App
Temp
°C
Dew
Point
Rel
Hum
%
Delta-T
°C
Wind Press
QNH
hPa
Press
MSL
hPa
Rain
since 9 am
mm
Dir
 
Spd
km/h
Gust
km/h
Spd
kts
Gust
kts
14/11:30pm 17.7 15.2 13.4 76 2.4 N 19 30 10 16 1019.3 1019.0 0.0
14/11:00pm 17.7 15.9 13.4 76 2.4 N 15 26 8 14 1019.5 1019.2 0.0
14/10:30pm 17.9 15.9 13.8 77 2.3 N 17 26 9 14 1019.6 1019.3 0.0
14/10:00pm 18.0 15.4 13.9 77 2.3 N 20 28 11 15 1019.6 1019.3 0.0
14/09:30pm 18.1 15.1 13.8 76 2.5 N 22 30 12 16 1019.7 1019.4 0.0
14/09:00pm 18.2 15.6 13.9 76 2.5 N 20 30 11 16 1019.8 1019.5 0.0
14/08:30pm 18.6 14.9 13.9 74 2.7 N 26 35 14 19 1019.7 1019.4 0.0
14/08:00pm 18.5 14.6 13.4 72 2.9 N 26 37 14 20 1019.7 1019.4 0.0
14/07:30pm 18.5 14.5 13.1 71 3.1 N 26 37 14 20 1019.6 1019.3 0.0
14/07:00pm 18.5 14.3 12.5 68 3.4 N 26 37 14 20 1019.4 1019.1 0.0
14/06:30pm 18.6 15.0 13.0 70 3.2 N 24 30 13 16 1019.2 1018.9 0.0
14/06:00pm 18.7 15.0 12.7 68 3.4 N 24 32 13 17 1019.2 1018.9 0.0
14/05:30pm 18.8 15.8 12.5 67 3.5 NNE 20 32 11 17 1019.2 1018.9 0.0
14/05:00pm 19.2 16.1 12.2 64 3.9 NNE 20 32 11 17 1019.2 1018.9 0.0
14/04:30pm 19.6 16.2 12.4 63 4.0 NE 22 32 12 17 1019.2 1018.9 0.0
14/04:00pm 19.8 16.7 12.3 62 4.2 NNE 20 30 11 16 1019.4 1019.1 0.0
14/03:30pm 20.6 17.2 12.6 60 4.5 NE 22 32 12 17 1019.6 1019.3 0.0
14/03:00pm 20.9 17.5 12.6 59 4.7 NE 22 35 12 19 1019.7 1019.4 0.0
14/02:30pm 21.1 16.6 12.5 58 4.9 NE 28 33 15 18 1019.9 1019.6 0.0
14/02:00pm 21.3 17.4 13.2 60 4.6 NE 26 32 14 17 1020.1 1019.8 0.0
14/01:30pm 21.3 17.0 11.9 55 5.3 NE 26 32 14 17 1020.5 1020.2 0.0
14/01:00pm 23.2 21.0 15.0 60 4.9 ENE 20 26 11 14 1020.9 1020.7 0.0
14/12:30pm 22.7 21.3 15.5 64 4.3 ENE 17 20 9 11 1021.3 1021.1 0.0
14/12:00pm 22.3 20.8 15.4 65 4.1 ENE 17 20 9 11 1021.8 1021.6 0.0
14/11:30am 22.2 20.8 15.5 66 4.0 ENE 17 20 9 11 1022.3 1022.1 0.0
14/11:00am 21.3 19.8 14.2 64 4.1 ENE 15 17 8 9 1022.6 1022.4 0.0
14/10:30am 21.6 20.4 14.0 62 4.4 NE 13 15 7 8 1023.0 1022.8 0.0
14/10:00am 21.1 20.2 13.8 63 4.2 E 11 13 6 7 1023.3 1023.1 0.0
14/09:30am 20.6 19.9 13.3 63 4.2 NNE 9 13 5 7 1023.4 1023.2 0.0
14/09:00am 20.0 18.9 13.2 65 3.9 ENE 11 15 6 8 1023.4 1023.2 0.0
14/08:30am 19.5 19.1 13.0 66 3.7 NE 7 9 4 5 1023.6 1023.4 0.0
14/08:00am 18.1 18.8 12.3 69 3.2 CALM 0 0 0 0 1023.6 1023.4 0.0
14/07:30am 17.5 18.3 12.6 73 2.7 CALM 0 2 0 1 1023.5 1023.3 0.0
14/07:00am 15.9 14.5 12.1 78 2.1 W 11 15 6 8 1023.4 1023.2 0.0
14/06:30am 15.2 13.3 11.8 80 1.8 W 13 17 7 9 1023.2 1023.0 0.0
14/06:00am 15.3 13.0 11.9 80 1.8 W 15 17 8 9 1022.9 1022.7 0.0
14/05:30am 15.6 13.8 12.0 79 2.0 WSW 13 15 7 8 1022.5 1022.3 0.0
14/05:00am 15.4 12.9 12.2 81 1.7 WSW 17 19 9 10 1022.4 1022.2 0.0
14/04:30am 15.5 14.4 11.9 79 2.0 WSW 9 13 5 7 1022.2 1022.0 0.0
14/04:00am 15.5 13.9 11.7 78 2.1 WSW 11 13 6 7 1022.2 1022.0 0.0
14/03:30am 15.6 13.8 12.0 79 2.0 W 13 17 7 9 1022.3 1022.1 0.0
14/03:00am 15.3 13.5 12.1 81 1.7 W 13 17 7 9 1022.6 1022.4 0.0
14/02:30am 15.5 14.1 12.1 80 1.9 WSW 11 17 6 9 1023.0 1022.8 0.0
14/02:00am 15.5 13.7 12.1 80 1.9 W 13 17 7 9 1023.4 1023.2 0.0
14/01:30am 16.1 14.7 12.3 78 2.1 W 11 13 6 7 1023.6 1023.4 0.0
14/01:00am 16.5 15.2 12.5 77 2.2 W 11 15 6 8 1023.8 1023.6 0.0
14/12:30am 16.8 16.4 12.3 75 2.5 NW 6 9 3 5 1023.9 1023.7 0.0
14/12:00am 17.2 17.0 12.9 76 2.4 N 6 7 3 4 1024.1 1023.9 0.0
 
Date/Time
EST
Temp
°C
App
Temp
°C
Dew
Point
Rel
Hum
%
Delta-T
°C
Wind Press
QNH
hPa
Press
MSL
hPa
Rain
since 9 am
mm
Dir
 
Spd
km/h
Gust
km/h
Spd
kts
Gust
kts
13/11:30pm 17.3 14.4 12.4 73 2.7 ENE 19 24 10 13 1024.1 1023.9 0.0
13/11:00pm 17.3 14.3 12.6 74 2.6 ENE 20 28 11 15 1024.0 1023.8 0.0
13/10:30pm 17.2 14.4 12.7 75 2.5 NE 19 26 10 14 1024.2 1024.0 0.0
13/10:00pm 17.0 16.0 12.3 74 2.6 NE 9 19 5 10 1024.5 1024.3 0.0
13/09:30pm 17.5 17.0 12.8 74 2.6 N 7 13 4 7 1024.6 1024.4 0.0
13/09:00pm 18.3 15.5 11.4 64 3.8 NE 17 20 9 11 1024.8 1024.6 0.0
13/08:30pm 17.8 15.9 11.8 68 3.3 ENE 13 19 7 10 1024.9 1024.7 0.0
13/08:00pm 17.9 15.6 11.9 68 3.3 E 15 20 8 11 1024.8 1024.6 0.0
13/07:30pm 18.1 16.2 11.9 67 3.4 E 13 20 7 11 1024.8 1024.6 0.0
13/07:00pm 18.1 16.7 12.1 68 3.3 ESE 11 19 6 10 1024.7 1024.5 0.0
13/06:30pm 17.4 15.1 12.9 75 2.5 ENE 17 20 9 11 1024.4 1024.2 0.0
13/06:00pm 17.4 14.5 12.9 75 2.5 E 20 28 11 15 1023.8 1023.6 0.0
13/05:30pm 17.9 16.5 13.4 75 2.6 E 13 20 7 11 1023.7 1023.5 0.0
13/05:00pm 18.4 17.1 13.7 74 2.7 E 13 17 7 9 1023.5 1023.3 0.0
13/04:30pm 18.9 17.7 14.0 73 2.8 E 13 19 7 10 1023.4 1023.2 0.0
13/04:00pm 19.4 18.3 14.4 73 2.9 E 13 20 7 11 1023.2 1023.0 0.0
13/03:30pm 19.3 17.6 13.5 69 3.3 E 15 20 8 11 1023.2 1023.0 0.0
13/03:00pm 20.3 18.5 14.4 69 3.4 E 17 24 9 13 1023.2 1023.0 0.0
13/02:30pm 20.0 18.5 14.1 69 3.4 E 15 19 8 10 1023.5 1023.3 0.0
13/02:00pm 20.2 18.7 14.3 69 3.4 NE 15 17 8 9 1023.3 1023.1 0.0
13/01:30pm 19.9 17.3 13.8 68 3.5 NE 20 24 11 13 1023.5 1023.3 0.0
13/01:00pm 20.1 16.2 13.3 65 3.9 NNE 26 32 14 17 1023.8 1023.6 0.0
13/12:30pm 21.7 17.5 14.6 64 4.2 NNE 30 35 16 19 1024.1 1023.9 0.0
13/12:00pm 20.5 - 14.8 70 3.3 - - - - - 1024.5 1024.3 -
13/11:30am 21.2 20.6 15.7 71 3.3 ENE 13 17 7 9 1024.7 1024.5 0.0
13/11:00am 19.6 17.5 13.5 68 3.5 E 17 20 9 11 1024.8 1024.6 0.0
13/10:30am 19.3 18.5 14.1 72 3.0 E 11 15 6 8 1024.9 1024.7 0.0
13/10:00am 17.6 16.5 14.3 81 1.9 E 13 17 7 9 1025.1 1024.9 0.0
13/09:30am 17.5 12.7 13.0 75 2.5 E 30 37 16 20 1025.2 1025.0 0.0
13/09:00am 17.8 15.4 14.3 80 2.0 SE 20 32 11 17 1025.3 1025.1 0.0
13/08:30am 18.0 15.5 14.1 78 2.2 SW 20 28 11 15 1025.1 1024.9 0.0
13/08:00am 17.5 16.0 14.2 81 1.9 SW 15 19 8 10 1024.8 1024.6 0.0
13/07:30am 16.4 15.4 13.3 82 1.7 SW 11 15 6 8 1024.5 1024.3 0.0
13/07:00am 16.2 15.5 13.3 83 1.6 SW 9 13 5 7 1024.2 1024.0 0.0
13/06:30am 15.3 13.8 13.0 86 1.3 SW 13 17 7 9 1024.1 1023.9 0.0
13/06:00am 15.1 13.0 12.4 84 1.5 SW 15 20 8 11 1023.6 1023.4 0.0
13/05:30am 15.7 14.4 12.6 82 1.7 SW 11 13 6 7 1023.4 1023.2 0.0
13/05:00am 16.3 14.4 13.0 81 1.8 WSW 15 20 8 11 1023.2 1023.0 0.0
13/04:30am 16.6 15.4 12.9 79 2.1 WSW 11 15 6 8 1022.9 1022.7 0.0
13/04:00am 16.4 15.6 12.9 80 1.9 WSW 9 15 5 8 1022.8 1022.6 0.0
13/03:30am 16.7 16.3 13.0 79 2.1 W 7 11 4 6 1022.8 1022.6 0.0
13/03:00am 16.9 16.8 13.2 79 2.1 SSE 6 13 3 7 1022.9 1022.7 0.0
13/02:30am 17.1 16.7 13.0 77 2.3 SE 7 15 4 8 1022.9 1022.7 0.0
13/02:00am 17.4 17.0 13.1 76 2.4 SE 7 11 4 6 1023.2 1023.0 0.0
13/01:30am 17.6 17.3 13.3 76 2.4 E 7 11 4 6 1023.6 1023.4 0.0
13/01:00am 17.7 17.1 13.4 76 2.4 SSE 9 15 5 8 1023.6 1023.4 0.0
13/12:30am 17.9 16.4 13.2 74 2.7 E 13 19 7 10 1023.7 1023.5 0.0
13/12:00am 17.9 15.7 13.4 75 2.5 E 17 20 9 11 1024.0 1023.8 0.0
 
Date/Time
EST
Temp
°C
App
Temp
°C
Dew
Point
Rel
Hum
%
Delta-T
°C
Wind Press
QNH
hPa
Press
MSL
hPa
Rain
since 9 am
mm
Dir
 
Spd
km/h
Gust
km/h
Spd
kts
Gust
kts
12/11:30pm 18.0 15.4 13.3 74 2.7 E 19 24 10 13 1024.1 1023.9 0.0
12/11:00pm 18.1 15.6 13.6 75 2.6 E 19 22 10 12 1024.1 1023.9 0.0
12/10:30pm 18.1 15.7 13.8 76 2.5 E 19 22 10 12 1024.1 1023.9 0.0
12/10:00pm 18.3 15.7 13.8 75 2.6 E 20 24 11 13 1024.1 1023.9 0.0
12/09:30pm 18.3 16.0 14.0 76 2.5 E 19 22 10 12 1024.1 1023.9 0.0
12/09:00pm 18.3 15.8 13.6 74 2.7 E 19 24 10 13 1023.9 1023.7 0.0
12/08:30pm 18.5 15.8 13.6 73 2.8 E 20 24 11 13 1023.8 1023.6 0.0
12/08:00pm 18.4 15.7 13.5 73 2.8 E 20 26 11 14 1023.6 1023.4 0.0
12/07:30pm 18.5 15.5 13.8 74 2.7 E 22 28 12 15 1023.5 1023.3 0.0
12/07:00pm 18.8 15.5 13.9 73 2.8 ESE 24 30 13 16 1023.2 1023.0 0.0
12/06:30pm 18.7 16.0 13.6 72 2.9 SE 20 28 11 15 1023.0 1022.8 0.0
12/06:00pm 18.7 15.7 13.6 72 2.9 S 22 30 12 16 1022.8 1022.6 0.0
12/05:30pm 18.9 15.1 13.5 71 3.1 S 26 33 14 18 1022.4 1022.2 0.0
12/05:00pm 19.2 14.7 13.8 71 3.1 S 30 37 16 20 1022.2 1022.0 0.0
12/04:30pm 19.7 14.8 12.7 64 4.0 S 30 39 16 21 1022.0 1021.8 0.0
12/04:00pm 19.8 14.5 12.6 63 4.1 S 32 39 17 21 1022.0 1021.8 0.0
12/03:30pm 19.8 14.6 12.8 64 4.0 S 32 37 17 20 1022.0 1021.8 0.0
12/03:00pm 19.9 14.8 13.1 65 3.9 S 32 37 17 20 1022.0 1021.8 0.0
12/02:30pm 19.9 14.2 12.9 64 4.0 S 35 41 19 22 1022.1 1021.9 0.0
12/02:00pm 19.9 13.9 12.2 61 4.3 S 35 41 19 22 1022.1 1021.9 0.0
12/01:30pm 19.9 14.5 12.9 64 4.0 S 33 39 18 21 1022.2 1022.0 0.0
12/01:00pm 19.9 14.3 12.2 61 4.3 S 33 39 18 21 1022.5 1022.3 0.0
12/12:30pm 20.2 15.8 14.1 68 3.5 S 30 35 16 19 1022.9 1022.7 0.0
12/12:00pm 19.7 15.6 14.9 74 2.8 S 30 35 16 19 1023.1 1022.9 0.0

Other Formats:

Comma delimited format used in spreadsheet applications
http://www.bom.gov.au/fwo/IDN60801/IDN60801.94599.axf

JavaScript Object Notation format (JSON) in row-major order
http://www.bom.gov.au/fwo/IDN60801/IDN60801.94599.json